sensor_id;sensor_type;location;lat;lon;timestamp;P1;durP1;ratioP1;P2;durP2;ratioP2
53781;SDS011;39692;53.114;7.060;2023-03-23T00:01:13;9.00;;;6.25;;
53781;SDS011;39692;53.114;7.060;2023-03-23T00:03:44;11.02;;;7.50;;
53781;SDS011;39692;53.114;7.060;2023-03-23T00:06:11;13.98;;;7.40;;
53781;SDS011;39692;53.114;7.060;2023-03-23T00:08:42;11.68;;;6.57;;
53781;SDS011;39692;53.114;7.060;2023-03-23T00:11:12;9.80;;;7.05;;
53781;SDS011;39692;53.114;7.060;2023-03-23T00:13:42;8.98;;;6.75;;
53781;SDS011;39692;53.114;7.060;2023-03-23T00:16:09;10.82;;;7.80;;
53781;SDS011;39692;53.114;7.060;2023-03-23T00:18:45;9.52;;;5.97;;
53781;SDS011;39692;53.114;7.060;2023-03-23T00:21:11;10.32;;;6.80;;
53781;SDS011;39692;53.114;7.060;2023-03-23T00:23:38;8.88;;;5.55;;
53781;SDS011;39692;53.114;7.060;2023-03-23T00:26:04;8.77;;;6.38;;
53781;SDS011;39692;53.114;7.060;2023-03-23T00:28:30;8.32;;;5.38;;
53781;SDS011;39692;53.114;7.060;2023-03-23T00:31:00;12.30;;;6.50;;
53781;SDS011;39692;53.114;7.060;2023-03-23T00:33:28;11.73;;;6.13;;
53781;SDS011;39692;53.114;7.060;2023-03-23T00:35:54;10.75;;;7.13;;
53781;SDS011;39692;53.114;7.060;2023-03-23T00:38:23;8.82;;;7.15;;
53781;SDS011;39692;53.114;7.060;2023-03-23T00:40:50;8.65;;;6.03;;
53781;SDS011;39692;53.114;7.060;2023-03-23T00:43:16;10.55;;;6.32;;
53781;SDS011;39692;53.114;7.060;2023-03-23T00:45:43;10.45;;;7.10;;
53781;SDS011;39692;53.114;7.060;2023-03-23T00:48:10;8.02;;;5.43;;
53781;SDS011;39692;53.114;7.060;2023-03-23T00:50:39;10.65;;;6.03;;
53781;SDS011;39692;53.114;7.060;2023-03-23T00:53:05;9.57;;;6.65;;
53781;SDS011;39692;53.114;7.060;2023-03-23T00:55:32;8.45;;;5.72;;
53781;SDS011;39692;53.114;7.060;2023-03-23T00:57:58;15.73;;;8.18;;
53781;SDS011;39692;53.114;7.060;2023-03-23T01:00:25;8.95;;;5.72;;
53781;SDS011;39692;53.114;7.060;2023-03-23T01:02:52;11.73;;;6.32;;
53781;SDS011;39692;53.114;7.060;2023-03-23T01:05:18;11.43;;;5.78;;
53781;SDS011;39692;53.114;7.060;2023-03-23T01:07:45;8.88;;;5.88;;
53781;SDS011;39692;53.114;7.060;2023-03-23T01:10:12;9.57;;;5.28;;
53781;SDS011;39692;53.114;7.060;2023-03-23T01:12:41;12.73;;;5.75;;
53781;SDS011;39692;53.114;7.060;2023-03-23T01:15:08;9.15;;;6.30;;
53781;SDS011;39692;53.114;7.060;2023-03-23T01:17:34;11.82;;;7.20;;
53781;SDS011;39692;53.114;7.060;2023-03-23T01:20:00;9.98;;;4.60;;
53781;SDS011;39692;53.114;7.060;2023-03-23T01:22:26;11.13;;;6.57;;
53781;SDS011;39692;53.114;7.060;2023-03-23T01:24:52;7.05;;;5.13;;
53781;SDS011;39692;53.114;7.060;2023-03-23T01:27:18;8.60;;;5.03;;
53781;SDS011;39692;53.114;7.060;2023-03-23T01:29:44;9.00;;;6.38;;
53781;SDS011;39692;53.114;7.060;2023-03-23T01:32:10;8.80;;;5.53;;
53781;SDS011;39692;53.114;7.060;2023-03-23T01:34:36;8.88;;;5.47;;
53781;SDS011;39692;53.114;7.060;2023-03-23T01:37:03;6.28;;;4.53;;
53781;SDS011;39692;53.114;7.060;2023-03-23T01:39:29;8.05;;;4.65;;
53781;SDS011;39692;53.114;7.060;2023-03-23T01:41:55;8.48;;;4.70;;
53781;SDS011;39692;53.114;7.060;2023-03-23T01:46:47;5.78;;;3.58;;
53781;SDS011;39692;53.114;7.060;2023-03-23T01:49:17;7.88;;;4.70;;
53781;SDS011;39692;53.114;7.060;2023-03-23T01:51:48;7.82;;;4.35;;
53781;SDS011;39692;53.114;7.060;2023-03-23T01:54:15;8.75;;;4.57;;
53781;SDS011;39692;53.114;7.060;2023-03-23T01:56:47;7.95;;;4.13;;
53781;SDS011;39692;53.114;7.060;2023-03-23T01:59:14;6.25;;;4.57;;
53781;SDS011;39692;53.114;7.060;2023-03-23T02:01:40;5.32;;;3.40;;
53781;SDS011;39692;53.114;7.060;2023-03-23T02:04:09;8.27;;;3.70;;
53781;SDS011;39692;53.114;7.060;2023-03-23T02:06:36;5.55;;;3.00;;
53781;SDS011;39692;53.114;7.060;2023-03-23T02:09:02;6.85;;;3.95;;
53781;SDS011;39692;53.114;7.060;2023-03-23T02:11:31;9.68;;;3.50;;
53781;SDS011;39692;53.114;7.060;2023-03-23T02:13:57;7.00;;;3.47;;
53781;SDS011;39692;53.114;7.060;2023-03-23T02:16:34;4.15;;;2.47;;
53781;SDS011;39692;53.114;7.060;2023-03-23T02:21:42;7.30;;;3.20;;
53781;SDS011;39692;53.114;7.060;2023-03-23T02:34:32;4.65;;;3.00;;
53781;SDS011;39692;53.114;7.060;2023-03-23T02:37:01;4.95;;;2.90;;
53781;SDS011;39692;53.114;7.060;2023-03-23T02:39:29;6.45;;;2.95;;
53781;SDS011;39692;53.114;7.060;2023-03-23T02:41:58;4.63;;;2.20;;
53781;SDS011;39692;53.114;7.060;2023-03-23T02:44:26;6.65;;;3.47;;
53781;SDS011;39692;53.114;7.060;2023-03-23T02:46:55;5.00;;;2.78;;
53781;SDS011;39692;53.114;7.060;2023-03-23T02:49:21;4.85;;;3.25;;
53781;SDS011;39692;53.114;7.060;2023-03-23T02:51:48;4.85;;;2.58;;
53781;SDS011;39692;53.114;7.060;2023-03-23T02:54:15;5.07;;;2.95;;
53781;SDS011;39692;53.114;7.060;2023-03-23T02:56:42;8.10;;;3.58;;
53781;SDS011;39692;53.114;7.060;2023-03-23T02:59:09;5.03;;;2.70;;
53781;SDS011;39692;53.114;7.060;2023-03-23T03:04:05;5.97;;;3.30;;
53781;SDS011;39692;53.114;7.060;2023-03-23T03:06:44;6.28;;;3.33;;
53781;SDS011;39692;53.114;7.060;2023-03-23T03:11:40;5.38;;;2.63;;
53781;SDS011;39692;53.114;7.060;2023-03-23T03:14:09;6.32;;;3.17;;
53781;SDS011;39692;53.114;7.060;2023-03-23T03:19:28;7.22;;;2.97;;
53781;SDS011;39692;53.114;7.060;2023-03-23T03:21:54;4.38;;;2.40;;
53781;SDS011;39692;53.114;7.060;2023-03-23T03:24:23;6.03;;;2.25;;
53781;SDS011;39692;53.114;7.060;2023-03-23T03:26:50;4.82;;;2.67;;
53781;SDS011;39692;53.114;7.060;2023-03-23T03:29:18;8.18;;;2.95;;
53781;SDS011;39692;53.114;7.060;2023-03-23T03:31:45;4.50;;;2.13;;
53781;SDS011;39692;53.114;7.060;2023-03-23T03:34:13;7.82;;;2.88;;
53781;SDS011;39692;53.114;7.060;2023-03-23T03:36:42;5.95;;;2.85;;
53781;SDS011;39692;53.114;7.060;2023-03-23T03:39:10;3.63;;;1.80;;
53781;SDS011;39692;53.114;7.060;2023-03-23T03:41:37;6.03;;;2.85;;
53781;SDS011;39692;53.114;7.060;2023-03-23T03:44:04;4.32;;;2.80;;
53781;SDS011;39692;53.114;7.060;2023-03-23T03:46:32;5.63;;;3.00;;
53781;SDS011;39692;53.114;7.060;2023-03-23T03:48:58;5.85;;;3.05;;
53781;SDS011;39692;53.114;7.060;2023-03-23T03:51:25;4.13;;;2.50;;
53781;SDS011;39692;53.114;7.060;2023-03-23T03:53:51;7.38;;;3.03;;
53781;SDS011;39692;53.114;7.060;2023-03-23T03:56:18;5.05;;;2.88;;
53781;SDS011;39692;53.114;7.060;2023-03-23T03:58:45;7.05;;;2.78;;
53781;SDS011;39692;53.114;7.060;2023-03-23T04:01:13;5.07;;;2.95;;
53781;SDS011;39692;53.114;7.060;2023-03-23T04:03:40;5.15;;;2.42;;
53781;SDS011;39692;53.114;7.060;2023-03-23T04:06:06;4.72;;;2.90;;
53781;SDS011;39692;53.114;7.060;2023-03-23T04:08:37;3.95;;;2.25;;
53781;SDS011;39692;53.114;7.060;2023-03-23T04:11:06;6.10;;;3.40;;
53781;SDS011;39692;53.114;7.060;2023-03-23T04:13:32;6.80;;;3.33;;
53781;SDS011;39692;53.114;7.060;2023-03-23T04:15:58;7.97;;;3.33;;
53781;SDS011;39692;53.114;7.060;2023-03-23T04:18:25;5.45;;;3.15;;
53781;SDS011;39692;53.114;7.060;2023-03-23T04:20:51;5.90;;;2.65;;
53781;SDS011;39692;53.114;7.060;2023-03-23T04:23:18;6.65;;;2.95;;
53781;SDS011;39692;53.114;7.060;2023-03-23T04:25:48;5.95;;;3.50;;
53781;SDS011;39692;53.114;7.060;2023-03-23T04:28:15;6.13;;;3.00;;
53781;SDS011;39692;53.114;7.060;2023-03-23T04:30:48;4.90;;;2.65;;
53781;SDS011;39692;53.114;7.060;2023-03-23T04:33:17;8.60;;;3.25;;
53781;SDS011;39692;53.114;7.060;2023-03-23T04:35:44;6.65;;;3.28;;
53781;SDS011;39692;53.114;7.060;2023-03-23T04:38:11;6.65;;;3.15;;
53781;SDS011;39692;53.114;7.060;2023-03-23T04:40:39;6.45;;;2.78;;
53781;SDS011;39692;53.114;7.060;2023-03-23T04:43:05;5.90;;;3.53;;
53781;SDS011;39692;53.114;7.060;2023-03-23T04:45:34;7.40;;;3.90;;
53781;SDS011;39692;53.114;7.060;2023-03-23T04:48:03;8.45;;;4.03;;
53781;SDS011;39692;53.114;7.060;2023-03-23T04:50:30;7.50;;;3.65;;
53781;SDS011;39692;53.114;7.060;2023-03-23T04:52:58;7.63;;;4.15;;
53781;SDS011;39692;53.114;7.060;2023-03-23T04:55:29;10.30;;;3.60;;
53781;SDS011;39692;53.114;7.060;2023-03-23T04:57:55;5.38;;;3.58;;
53781;SDS011;39692;53.114;7.060;2023-03-23T05:00:21;5.75;;;3.65;;
53781;SDS011;39692;53.114;7.060;2023-03-23T05:02:47;5.70;;;3.20;;
53781;SDS011;39692;53.114;7.060;2023-03-23T05:05:17;9.52;;;4.38;;
53781;SDS011;39692;53.114;7.060;2023-03-23T05:07:43;6.80;;;4.10;;
53781;SDS011;39692;53.114;7.060;2023-03-23T05:10:10;7.18;;;2.15;;
53781;SDS011;39692;53.114;7.060;2023-03-23T05:12:37;2.55;;;0.70;;
53781;SDS011;39692;53.114;7.060;2023-03-23T05:15:03;2.30;;;0.65;;
53781;SDS011;39692;53.114;7.060;2023-03-23T05:17:31;2.63;;;1.00;;
53781;SDS011;39692;53.114;7.060;2023-03-23T05:19:57;1.20;;;0.60;;
53781;SDS011;39692;53.114;7.060;2023-03-23T05:22:23;4.80;;;1.10;;
53781;SDS011;39692;53.114;7.060;2023-03-23T05:24:51;2.30;;;0.60;;
53781;SDS011;39692;53.114;7.060;2023-03-23T05:27:18;1.58;;;0.70;;
53781;SDS011;39692;53.114;7.060;2023-03-23T05:29:44;2.42;;;0.75;;
53781;SDS011;39692;53.114;7.060;2023-03-23T05:32:14;2.22;;;1.10;;
53781;SDS011;39692;53.114;7.060;2023-03-23T05:34:41;2.15;;;0.80;;
53781;SDS011;39692;53.114;7.060;2023-03-23T05:37:08;1.60;;;0.80;;
53781;SDS011;39692;53.114;7.060;2023-03-23T05:39:35;3.20;;;1.08;;
53781;SDS011;39692;53.114;7.060;2023-03-23T05:42:01;3.55;;;0.98;;
53781;SDS011;39692;53.114;7.060;2023-03-23T05:44:27;2.10;;;0.80;;
53781;SDS011;39692;53.114;7.060;2023-03-23T05:46:54;2.30;;;1.35;;
53781;SDS011;39692;53.114;7.060;2023-03-23T05:49:20;5.35;;;1.42;;
53781;SDS011;39692;53.114;7.060;2023-03-23T05:51:47;3.05;;;1.05;;
53781;SDS011;39692;53.114;7.060;2023-03-23T05:54:15;2.47;;;0.93;;
53781;SDS011;39692;53.114;7.060;2023-03-23T05:56:41;5.88;;;1.58;;
53781;SDS011;39692;53.114;7.060;2023-03-23T05:59:07;4.60;;;1.30;;
53781;SDS011;39692;53.114;7.060;2023-03-23T06:01:35;9.35;;;1.67;;
53781;SDS011;39692;53.114;7.060;2023-03-23T06:04:01;5.88;;;1.13;;
53781;SDS011;39692;53.114;7.060;2023-03-23T06:06:30;4.47;;;1.20;;
53781;SDS011;39692;53.114;7.060;2023-03-23T06:08:57;4.53;;;1.63;;
53781;SDS011;39692;53.114;7.060;2023-03-23T06:11:24;4.78;;;1.67;;
53781;SDS011;39692;53.114;7.060;2023-03-23T06:13:51;6.93;;;1.58;;
53781;SDS011;39692;53.114;7.060;2023-03-23T06:16:17;9.82;;;1.83;;
53781;SDS011;39692;53.114;7.060;2023-03-23T06:18:44;6.80;;;1.77;;
53781;SDS011;39692;53.114;7.060;2023-03-23T06:21:10;6.93;;;1.95;;
53781;SDS011;39692;53.114;7.060;2023-03-23T06:23:37;4.90;;;1.60;;
53781;SDS011;39692;53.114;7.060;2023-03-23T06:26:05;6.35;;;2.45;;
53781;SDS011;39692;53.114;7.060;2023-03-23T06:28:32;8.88;;;1.77;;
53781;SDS011;39692;53.114;7.060;2023-03-23T06:31:01;5.15;;;1.75;;
53781;SDS011;39692;53.114;7.060;2023-03-23T06:33:28;8.18;;;2.03;;
53781;SDS011;39692;53.114;7.060;2023-03-23T06:35:54;10.43;;;1.92;;
53781;SDS011;39692;53.114;7.060;2023-03-23T06:38:21;6.55;;;1.98;;
53781;SDS011;39692;53.114;7.060;2023-03-23T06:40:47;5.38;;;1.92;;
53781;SDS011;39692;53.114;7.060;2023-03-23T06:43:13;7.47;;;2.13;;
53781;SDS011;39692;53.114;7.060;2023-03-23T06:45:39;11.10;;;2.40;;
53781;SDS011;39692;53.114;7.060;2023-03-23T06:48:06;2.85;;;1.25;;
53781;SDS011;39692;53.114;7.060;2023-03-23T06:50:32;4.10;;;1.70;;
53781;SDS011;39692;53.114;7.060;2023-03-23T06:52:58;8.88;;;2.20;;
53781;SDS011;39692;53.114;7.060;2023-03-23T06:55:24;10.02;;;1.90;;
53781;SDS011;39692;53.114;7.060;2023-03-23T06:57:50;5.45;;;1.60;;
53781;SDS011;39692;53.114;7.060;2023-03-23T07:00:16;8.57;;;1.83;;
53781;SDS011;39692;53.114;7.060;2023-03-23T07:02:43;5.22;;;1.77;;
53781;SDS011;39692;53.114;7.060;2023-03-23T07:05:09;5.28;;;1.92;;
53781;SDS011;39692;53.114;7.060;2023-03-23T07:07:36;5.40;;;1.60;;
53781;SDS011;39692;53.114;7.060;2023-03-23T07:10:07;6.80;;;2.33;;
53781;SDS011;39692;53.114;7.060;2023-03-23T07:12:34;8.65;;;1.92;;
53781;SDS011;39692;53.114;7.060;2023-03-23T07:15:01;5.95;;;2.05;;
53781;SDS011;39692;53.114;7.060;2023-03-23T07:17:27;9.68;;;2.47;;
53781;SDS011;39692;53.114;7.060;2023-03-23T07:19:53;7.13;;;2.13;;
53781;SDS011;39692;53.114;7.060;2023-03-23T07:22:20;10.75;;;2.28;;
53781;SDS011;39692;53.114;7.060;2023-03-23T07:24:46;7.25;;;2.88;;
53781;SDS011;39692;53.114;7.060;2023-03-23T07:27:12;7.15;;;3.17;;
53781;SDS011;39692;53.114;7.060;2023-03-23T07:29:38;8.93;;;2.42;;
53781;SDS011;39692;53.114;7.060;2023-03-23T07:32:05;7.63;;;2.30;;
53781;SDS011;39692;53.114;7.060;2023-03-23T07:34:32;11.55;;;2.40;;
53781;SDS011;39692;53.114;7.060;2023-03-23T07:36:58;11.15;;;2.22;;
53781;SDS011;39692;53.114;7.060;2023-03-23T07:39:25;6.90;;;2.38;;
53781;SDS011;39692;53.114;7.060;2023-03-23T07:41:51;13.15;;;3.00;;
53781;SDS011;39692;53.114;7.060;2023-03-23T07:44:17;11.43;;;3.40;;
53781;SDS011;39692;53.114;7.060;2023-03-23T07:46:43;12.20;;;2.97;;
53781;SDS011;39692;53.114;7.060;2023-03-23T07:49:09;10.63;;;3.05;;
53781;SDS011;39692;53.114;7.060;2023-03-23T07:51:35;12.32;;;3.42;;
53781;SDS011;39692;53.114;7.060;2023-03-23T07:54:05;7.63;;;2.60;;
53781;SDS011;39692;53.114;7.060;2023-03-23T07:56:32;9.13;;;2.53;;
53781;SDS011;39692;53.114;7.060;2023-03-23T07:58:58;12.32;;;3.63;;
53781;SDS011;39692;53.114;7.060;2023-03-23T08:01:25;10.38;;;3.75;;
53781;SDS011;39692;53.114;7.060;2023-03-23T08:03:51;12.50;;;4.03;;
53781;SDS011;39692;53.114;7.060;2023-03-23T08:06:19;10.70;;;3.22;;
53781;SDS011;39692;53.114;7.060;2023-03-23T08:08:46;14.25;;;4.45;;
53781;SDS011;39692;53.114;7.060;2023-03-23T08:11:12;14.00;;;4.22;;
53781;SDS011;39692;53.114;7.060;2023-03-23T08:13:40;8.65;;;3.45;;
53781;SDS011;39692;53.114;7.060;2023-03-23T08:16:07;14.10;;;4.03;;
53781;SDS011;39692;53.114;7.060;2023-03-23T08:18:34;13.93;;;4.25;;
53781;SDS011;39692;53.114;7.060;2023-03-23T08:21:01;11.93;;;3.75;;
53781;SDS011;39692;53.114;7.060;2023-03-23T08:23:29;10.55;;;3.63;;
53781;SDS011;39692;53.114;7.060;2023-03-23T08:25:55;12.70;;;3.92;;
53781;SDS011;39692;53.114;7.060;2023-03-23T08:28:21;11.85;;;3.13;;
53781;SDS011;39692;53.114;7.060;2023-03-23T08:30:48;9.80;;;3.50;;
53781;SDS011;39692;53.114;7.060;2023-03-23T08:33:14;9.73;;;3.35;;
53781;SDS011;39692;53.114;7.060;2023-03-23T08:35:40;8.75;;;3.22;;
53781;SDS011;39692;53.114;7.060;2023-03-23T08:38:08;12.75;;;3.35;;
53781;SDS011;39692;53.114;7.060;2023-03-23T08:40:34;10.60;;;3.47;;
53781;SDS011;39692;53.114;7.060;2023-03-23T08:43:01;13.18;;;3.25;;
53781;SDS011;39692;53.114;7.060;2023-03-23T08:45:27;10.15;;;4.07;;
53781;SDS011;39692;53.114;7.060;2023-03-23T08:47:54;10.05;;;2.92;;
53781;SDS011;39692;53.114;7.060;2023-03-23T08:50:22;15.85;;;3.67;;
53781;SDS011;39692;53.114;7.060;2023-03-23T08:52:48;10.38;;;4.20;;
53781;SDS011;39692;53.114;7.060;2023-03-23T08:55:15;16.55;;;4.07;;
53781;SDS011;39692;53.114;7.060;2023-03-23T08:57:42;11.98;;;3.20;;
53781;SDS011;39692;53.114;7.060;2023-03-23T09:00:10;15.27;;;3.83;;
53781;SDS011;39692;53.114;7.060;2023-03-23T09:02:43;16.20;;;4.33;;
53781;SDS011;39692;53.114;7.060;2023-03-23T09:05:10;11.40;;;3.20;;
53781;SDS011;39692;53.114;7.060;2023-03-23T09:07:37;11.88;;;3.63;;
53781;SDS011;39692;53.114;7.060;2023-03-23T09:10:04;15.07;;;4.70;;
53781;SDS011;39692;53.114;7.060;2023-03-23T09:12:30;12.27;;;4.25;;
53781;SDS011;39692;53.114;7.060;2023-03-23T09:14:56;16.27;;;4.85;;
53781;SDS011;39692;53.114;7.060;2023-03-23T09:17:22;14.80;;;4.68;;
53781;SDS011;39692;53.114;7.060;2023-03-23T09:19:48;15.23;;;4.60;;
53781;SDS011;39692;53.114;7.060;2023-03-23T09:22:15;13.32;;;4.80;;
53781;SDS011;39692;53.114;7.060;2023-03-23T09:24:45;14.50;;;5.10;;
53781;SDS011;39692;53.114;7.060;2023-03-23T09:27:11;12.48;;;4.03;;
53781;SDS011;39692;53.114;7.060;2023-03-23T09:29:38;14.90;;;4.65;;
53781;SDS011;39692;53.114;7.060;2023-03-23T09:32:04;13.95;;;4.35;;
53781;SDS011;39692;53.114;7.060;2023-03-23T09:34:30;16.90;;;4.93;;
53781;SDS011;39692;53.114;7.060;2023-03-23T09:37:00;14.95;;;4.88;;
53781;SDS011;39692;53.114;7.060;2023-03-23T09:39:29;10.90;;;4.25;;
53781;SDS011;39692;53.114;7.060;2023-03-23T09:47:31;13.55;;;4.20;;
53781;SDS011;39692;53.114;7.060;2023-03-23T09:50:15;12.90;;;4.85;;
53781;SDS011;39692;53.114;7.060;2023-03-23T09:52:48;14.60;;;4.78;;
53781;SDS011;39692;53.114;7.060;2023-03-23T09:55:18;12.07;;;4.55;;
53781;SDS011;39692;53.114;7.060;2023-03-23T09:57:53;11.93;;;4.22;;
53781;SDS011;39692;53.114;7.060;2023-03-23T10:01:05;13.40;;;4.68;;
53781;SDS011;39692;53.114;7.060;2023-03-23T10:03:45;12.93;;;3.83;;
53781;SDS011;39692;53.114;7.060;2023-03-23T10:06:13;16.17;;;4.47;;
53781;SDS011;39692;53.114;7.060;2023-03-23T10:08:55;13.40;;;4.38;;
53781;SDS011;39692;53.114;7.060;2023-03-23T10:16:47;20.13;;;5.13;;
53781;SDS011;39692;53.114;7.060;2023-03-23T10:19:43;11.65;;;4.00;;
53781;SDS011;39692;53.114;7.060;2023-03-23T10:22:14;7.68;;;2.88;;
53781;SDS011;39692;53.114;7.060;2023-03-23T10:27:18;14.98;;;4.03;;
53781;SDS011;39692;53.114;7.060;2023-03-23T10:30:00;11.40;;;4.15;;
53781;SDS011;39692;53.114;7.060;2023-03-23T10:32:44;9.75;;;3.88;;
53781;SDS011;39692;53.114;7.060;2023-03-23T10:35:32;11.77;;;3.40;;
53781;SDS011;39692;53.114;7.060;2023-03-23T10:38:03;8.93;;;3.10;;
53781;SDS011;39692;53.114;7.060;2023-03-23T10:40:34;9.45;;;3.20;;
53781;SDS011;39692;53.114;7.060;2023-03-23T10:43:09;11.23;;;3.72;;
53781;SDS011;39692;53.114;7.060;2023-03-23T10:45:35;10.15;;;2.78;;
53781;SDS011;39692;53.114;7.060;2023-03-23T10:48:13;11.73;;;3.30;;
53781;SDS011;39692;53.114;7.060;2023-03-23T10:50:51;10.60;;;3.00;;
53781;SDS011;39692;53.114;7.060;2023-03-23T10:53:24;8.52;;;3.47;;
53781;SDS011;39692;53.114;7.060;2023-03-23T10:55:57;9.05;;;3.70;;
53781;SDS011;39692;53.114;7.060;2023-03-23T10:58:25;11.30;;;3.15;;
53781;SDS011;39692;53.114;7.060;2023-03-23T11:00:54;6.70;;;3.08;;
53781;SDS011;39692;53.114;7.060;2023-03-23T11:03:24;6.43;;;2.35;;
53781;SDS011;39692;53.114;7.060;2023-03-23T11:06:01;9.65;;;2.90;;
53781;SDS011;39692;53.114;7.060;2023-03-23T11:08:35;10.13;;;3.15;;
53781;SDS011;39692;53.114;7.060;2023-03-23T11:11:36;10.23;;;2.85;;
53781;SDS011;39692;53.114;7.060;2023-03-23T11:14:17;5.88;;;2.03;;
53781;SDS011;39692;53.114;7.060;2023-03-23T11:16:54;8.68;;;2.80;;
53781;SDS011;39692;53.114;7.060;2023-03-23T11:19:22;8.77;;;2.47;;
53781;SDS011;39692;53.114;7.060;2023-03-23T11:21:49;6.85;;;3.15;;
53781;SDS011;39692;53.114;7.060;2023-03-23T11:24:17;9.40;;;2.80;;
53781;SDS011;39692;53.114;7.060;2023-03-23T11:26:44;14.10;;;2.63;;
53781;SDS011;39692;53.114;7.060;2023-03-23T11:31:39;4.93;;;2.05;;
53781;SDS011;39692;53.114;7.060;2023-03-23T11:34:15;7.00;;;2.40;;
53781;SDS011;39692;53.114;7.060;2023-03-23T11:36:47;9.43;;;2.33;;
53781;SDS011;39692;53.114;7.060;2023-03-23T11:39:26;7.28;;;2.83;;
53781;SDS011;39692;53.114;7.060;2023-03-23T11:41:53;9.40;;;2.45;;
53781;SDS011;39692;53.114;7.060;2023-03-23T11:44:20;7.25;;;2.47;;
53781;SDS011;39692;53.114;7.060;2023-03-23T11:49:38;6.03;;;1.75;;
53781;SDS011;39692;53.114;7.060;2023-03-23T11:52:16;5.38;;;2.00;;
53781;SDS011;39692;53.114;7.060;2023-03-23T11:54:57;5.20;;;2.17;;
53781;SDS011;39692;53.114;7.060;2023-03-23T11:57:24;6.07;;;1.90;;
53781;SDS011;39692;53.114;7.060;2023-03-23T11:59:53;5.13;;;2.03;;
53781;SDS011;39692;53.114;7.060;2023-03-23T12:05:31;7.65;;;2.28;;
53781;SDS011;39692;53.114;7.060;2023-03-23T12:08:11;7.43;;;2.53;;
53781;SDS011;39692;53.114;7.060;2023-03-23T12:10:45;5.18;;;1.90;;
53781;SDS011;39692;53.114;7.060;2023-03-23T12:21:18;6.72;;;2.22;;
53781;SDS011;39692;53.114;7.060;2023-03-23T12:26:21;8.93;;;2.88;;
53781;SDS011;39692;53.114;7.060;2023-03-23T12:28:51;6.60;;;2.50;;
53781;SDS011;39692;53.114;7.060;2023-03-23T12:31:37;7.70;;;2.65;;
53781;SDS011;39692;53.114;7.060;2023-03-23T12:36:47;8.02;;;3.05;;
53781;SDS011;39692;53.114;7.060;2023-03-23T12:39:38;8.30;;;3.08;;
53781;SDS011;39692;53.114;7.060;2023-03-23T12:48:13;6.68;;;3.03;;
53781;SDS011;39692;53.114;7.060;2023-03-23T12:50:45;8.30;;;2.70;;
53781;SDS011;39692;53.114;7.060;2023-03-23T12:53:28;8.27;;;2.42;;
53781;SDS011;39692;53.114;7.060;2023-03-23T12:58:47;8.32;;;2.45;;
53781;SDS011;39692;53.114;7.060;2023-03-23T13:04:10;6.50;;;2.60;;
53781;SDS011;39692;53.114;7.060;2023-03-23T13:06:44;7.70;;;3.03;;
53781;SDS011;39692;53.114;7.060;2023-03-23T13:09:16;9.07;;;2.92;;
53781;SDS011;39692;53.114;7.060;2023-03-23T13:12:10;7.32;;;2.83;;
53781;SDS011;39692;53.114;7.060;2023-03-23T13:17:20;10.10;;;2.60;;
53781;SDS011;39692;53.114;7.060;2023-03-23T13:25:15;8.20;;;2.90;;
53781;SDS011;39692;53.114;7.060;2023-03-23T13:28:03;6.05;;;2.40;;
53781;SDS011;39692;53.114;7.060;2023-03-23T13:30:29;7.97;;;2.58;;
53781;SDS011;39692;53.114;7.060;2023-03-23T13:33:01;6.13;;;2.60;;
53781;SDS011;39692;53.114;7.060;2023-03-23T13:35:35;7.00;;;2.55;;
53781;SDS011;39692;53.114;7.060;2023-03-23T13:38:19;9.02;;;2.97;;
53781;SDS011;39692;53.114;7.060;2023-03-23T13:40:51;8.98;;;3.25;;
53781;SDS011;39692;53.114;7.060;2023-03-23T13:43:31;6.97;;;2.80;;
53781;SDS011;39692;53.114;7.060;2023-03-23T13:46:52;9.38;;;3.30;;
53781;SDS011;39692;53.114;7.060;2023-03-23T13:48:45;10.30;;;2.80;;
53781;SDS011;39692;53.114;7.060;2023-03-23T13:51:26;8.40;;;2.60;;
53781;SDS011;39692;53.114;7.060;2023-03-23T13:54:03;10.82;;;3.20;;
53781;SDS011;39692;53.114;7.060;2023-03-23T13:56:56;10.45;;;2.88;;
53781;SDS011;39692;53.114;7.060;2023-03-23T14:01:55;7.57;;;2.50;;
53781;SDS011;39692;53.114;7.060;2023-03-23T14:04:41;5.03;;;2.35;;
53781;SDS011;39692;53.114;7.060;2023-03-23T14:07:10;7.03;;;2.67;;
53781;SDS011;39692;53.114;7.060;2023-03-23T14:09:41;5.70;;;2.45;;
53781;SDS011;39692;53.114;7.060;2023-03-23T14:12:25;7.57;;;2.55;;
53781;SDS011;39692;53.114;7.060;2023-03-23T14:14:57;8.00;;;2.60;;
53781;SDS011;39692;53.114;7.060;2023-03-23T14:17:30;8.90;;;2.63;;
53781;SDS011;39692;53.114;7.060;2023-03-23T14:19:59;8.68;;;2.75;;
53781;SDS011;39692;53.114;7.060;2023-03-23T14:22:36;9.32;;;3.20;;
53781;SDS011;39692;53.114;7.060;2023-03-23T14:25:12;7.22;;;3.03;;
53781;SDS011;39692;53.114;7.060;2023-03-23T14:27:41;26.83;;;2.25;;
53781;SDS011;39692;53.114;7.060;2023-03-23T14:30:17;8.30;;;2.25;;
53781;SDS011;39692;53.114;7.060;2023-03-23T14:32:46;8.10;;;2.60;;
53781;SDS011;39692;53.114;7.060;2023-03-23T14:35:28;7.07;;;2.30;;
53781;SDS011;39692;53.114;7.060;2023-03-23T14:37:55;8.25;;;2.40;;
53781;SDS011;39692;53.114;7.060;2023-03-23T14:40:21;6.43;;;2.25;;
53781;SDS011;39692;53.114;7.060;2023-03-23T14:42:47;9.70;;;2.42;;
53781;SDS011;39692;53.114;7.060;2023-03-23T14:45:17;15.05;;;3.47;;
53781;SDS011;39692;53.114;7.060;2023-03-23T14:47:45;7.05;;;1.83;;
53781;SDS011;39692;53.114;7.060;2023-03-23T14:50:48;6.85;;;2.58;;
53781;SDS011;39692;53.114;7.060;2023-03-23T14:55:53;10.52;;;1.83;;
53781;SDS011;39692;53.114;7.060;2023-03-23T14:58:20;7.82;;;2.88;;
53781;SDS011;39692;53.114;7.060;2023-03-23T15:00:50;9.32;;;1.83;;
53781;SDS011;39692;53.114;7.060;2023-03-23T15:03:19;12.35;;;2.75;;
53781;SDS011;39692;53.114;7.060;2023-03-23T15:05:47;8.57;;;2.33;;
53781;SDS011;39692;53.114;7.060;2023-03-23T15:08:20;7.05;;;1.65;;
53781;SDS011;39692;53.114;7.060;2023-03-23T15:11:09;7.22;;;2.75;;
53781;SDS011;39692;53.114;7.060;2023-03-23T15:13:37;9.63;;;2.50;;
53781;SDS011;39692;53.114;7.060;2023-03-23T15:16:12;6.07;;;2.25;;
53781;SDS011;39692;53.114;7.060;2023-03-23T15:18:39;10.85;;;2.22;;
53781;SDS011;39692;53.114;7.060;2023-03-23T15:21:10;7.85;;;2.58;;
53781;SDS011;39692;53.114;7.060;2023-03-23T15:23:40;8.15;;;2.42;;
53781;SDS011;39692;53.114;7.060;2023-03-23T15:26:12;5.90;;;1.85;;
53781;SDS011;39692;53.114;7.060;2023-03-23T15:28:48;6.35;;;2.33;;
53781;SDS011;39692;53.114;7.060;2023-03-23T15:31:14;8.75;;;2.55;;
53781;SDS011;39692;53.114;7.060;2023-03-23T15:33:41;7.22;;;2.25;;
53781;SDS011;39692;53.114;7.060;2023-03-23T15:36:08;8.82;;;2.03;;
53781;SDS011;39692;53.114;7.060;2023-03-23T15:38:42;9.95;;;3.05;;
53781;SDS011;39692;53.114;7.060;2023-03-23T15:41:20;5.32;;;2.25;;
53781;SDS011;39692;53.114;7.060;2023-03-23T15:43:51;7.95;;;2.00;;
53781;SDS011;39692;53.114;7.060;2023-03-23T15:51:41;8.57;;;2.63;;
53781;SDS011;39692;53.114;7.060;2023-03-23T15:54:08;10.00;;;2.70;;
53781;SDS011;39692;53.114;7.060;2023-03-23T15:56:37;8.98;;;2.47;;
53781;SDS011;39692;53.114;7.060;2023-03-23T15:59:03;8.57;;;1.92;;
53781;SDS011;39692;53.114;7.060;2023-03-23T16:01:30;8.50;;;1.75;;
53781;SDS011;39692;53.114;7.060;2023-03-23T16:06:35;5.35;;;1.58;;
53781;SDS011;39692;53.114;7.060;2023-03-23T16:09:02;8.30;;;2.38;;
53781;SDS011;39692;53.114;7.060;2023-03-23T16:11:28;9.18;;;2.15;;
53781;SDS011;39692;53.114;7.060;2023-03-23T16:13:56;7.35;;;1.75;;
53781;SDS011;39692;53.114;7.060;2023-03-23T16:16:24;7.97;;;1.55;;
53781;SDS011;39692;53.114;7.060;2023-03-23T16:18:51;9.15;;;2.08;;
53781;SDS011;39692;53.114;7.060;2023-03-23T16:21:17;7.78;;;2.47;;
53781;SDS011;39692;53.114;7.060;2023-03-23T16:23:43;7.40;;;1.63;;
53781;SDS011;39692;53.114;7.060;2023-03-23T16:26:10;6.38;;;1.75;;
53781;SDS011;39692;53.114;7.060;2023-03-23T16:28:36;9.82;;;1.75;;